Washington, District of Columbia
Traffic Map
Current Weather Conditions
Washington, District of Columbia
Broken Clouds
Broken Clouds
11°
Feels Like: 11°
Wind Chill: 11° Ceiling: 25000
Heat Index: 11° Visibility: 10mi
Dew Point: Wind: 10mph
Humidity: 56% Direction: 310° (NW)
Pressure: 29.91in Gusts: 22mph
Raw Report DataKDCA 280452Z 31009G19KT 10SM FEW140 BKN250 11/02 A2991 RMK AO2 SLP129 T01060022 401670083
Traffic Incident Summary
Active as of:
Severity:
Category:
InformationThere was an issue retrieving the traffic information for this location. Please try a different location or try again shortly.
Advertisements
Track Severe Weather on mobile